METAR AND TAF INFORMATION
METAR FOR LIMF
ADDS - METARS form results

(0443 UTC 18 January 2020)
Data provider http://aviationweather.gov/metar/data/
 
METAR text: LIMF 180420Z VRB02KT 6000 BCFG SCT120 03/03 Q1022
Conditions at: LIMF (TORINO/CASELLE , IT) observed 0420 UTC 18 January 2020
Temperature: 3.0°C (37°F)
Dewpoint: 3.0°C (37°F) [RH = 100%]
Pressure (altimeter): 30.18 inches Hg (1022.0 mb)
Winds: variable direction winds at 2 MPH (2 knots; 1.0 m/s)
Visibility: 4 miles ( 6 km)
Ceiling: at least 12,000 feet AGL
Clouds: scattered clouds at 12000 feet AGL
Weather: BCFG  (patches of fog)

METAR text: LIMF 180350Z 24005KT 6000 SCT120 03/03 Q1022
Conditions at: LIMF (TORINO/CASELLE , IT) observed 0350 UTC 18 January 2020
Temperature: 3.0°C (37°F)
Dewpoint: 3.0°C (37°F) [RH = 100%]
Pressure (altimeter): 30.18 inches Hg (1022.0 mb)
Winds: from the WSW (240 degrees) at 6 MPH (5 knots; 2.6 m/s)
Visibility: 4 miles ( 6 km)
Ceiling: at least 12,000 feet AGL
Clouds: scattered clouds at 12000 feet AGL
Weather: no significant weather observed at this time

Forecast for: LIMF (TORINO/CASELLE , IT)
Text: TAF LIMF 172300Z 1800/1824 VRB05KT 7000 SCT030 BKN060
Forecast period: 0000 UTC 18 January 2020 to 0000 UTC 19 January 2020
Forecast type: FROM: standard forecast or significant change
Winds: variable direction winds at 6 MPH (5 knots; 2.6 m/s)
Visibility: 4 miles (7 km)
Ceiling: 6000 feet AGL
Clouds: scattered clouds at 3000 feet AGL
broken clouds at 6000 feet AGL
Weather: no significant weather forecast for this period
Text: TEMPO 1800/1803 RA
Forecast period: 0000 to 0300 UTC 18 January 2020
Forecast type: TEMPORARY: The following changes expected for less than half the time period
Visibility: missing
Ceiling: unknown
Clouds: missing
Weather: RA  (moderate rain)

 AIRPORT MAP

 RUNWAY INFORMATION
Runway 18 Runway length 10827 ft Runway width 197 ft
Runway elevation 981 ft Runway displaced threshold 2378 ft Runway heading 183
Runway 36 Runway length 10827 ft Runway width 197 ft
Runway elevation 933 ft Runway displaced threshold 1148 ft Runway heading 3

 AIRPORT FREQUENCIES
Type APP Name APP Frequency 23.44 MHZ
Type APP Name APP Frequency 129.275 MHZ
Type ATIS Name ATIS Frequency 120.475 MHZ
Type GND Name GND Frequency 121.7 MHZ
Type TWR Name TWR Frequency 118.5 MHZ

 AIRPORT NEAR NAVIGATION AIDS
Type TACAN Name Caselle Frequency 109500 KHZ
Type NDB Name Caselle Frequency 357 KHZ
Type VOR-DME Name Caselle Frequency 116750 KHZ
Type VOR-DME Name Torino Frequency 114500 KHZ
Type NDB Name Torino Frequency 393 KHZ



Powered by Virtual Airlines Manager [v2.6.2]